Soldier Pond, Maine
Current Conditions -  °F | °C
As of 10:53 AM on Thursday 30 Oct 2014 (Local Time) from KFVE Reporting Station
Few Clouds Few Clouds  
Wind Chill: 37°   Ceiling: Unl
Heat Index: 43°   Visibility: 10mi
Dew Point: 31°   Wind: 12mph
Humidity: 62%   Direction: 320°NW
Pressure: 29.8"   Gusts: NA
Location:  47.16°N, 68.57°W
Report Text: KFVE 301453Z AUTO 32010KT 10SM FEW030 06/M01 A2980 RMK AO2 SLP094 T00611006 51013
Loading
Personal Weather Stations






























Interactive Weather Map
Tropical Storm Tracking
New forecast layout! Learn more

10-Day Weather Forecast

Advertisements
Track Severe Weather on mobile